sensor_id;sensor_type;location;lat;lon;timestamp;pressure;altitude;pressure_sealevel;temperature;humidity
12666;BME280;58531;59.050;17.416;2023-07-31T00:01:15;99739.84;;;11.83;100.00
12666;BME280;58531;59.050;17.416;2023-07-31T00:03:42;99727.22;;;11.83;100.00
12666;BME280;58531;59.050;17.416;2023-07-31T00:06:08;99731.34;;;11.84;100.00
12666;BME280;58531;59.050;17.416;2023-07-31T00:08:35;99732.28;;;11.81;100.00
12666;BME280;58531;59.050;17.416;2023-07-31T00:11:03;99728.84;;;11.81;100.00
12666;BME280;58531;59.050;17.416;2023-07-31T00:13:30;99729.34;;;11.79;100.00
12666;BME280;58531;59.050;17.416;2023-07-31T00:15:57;99727.38;;;11.80;100.00
12666;BME280;58531;59.050;17.416;2023-07-31T00:18:24;99732.56;;;11.83;100.00
12666;BME280;58531;59.050;17.416;2023-07-31T00:20:51;99735.78;;;11.87;100.00
12666;BME280;58531;59.050;17.416;2023-07-31T00:23:17;99730.44;;;11.87;100.00
12666;BME280;58531;59.050;17.416;2023-07-31T00:25:44;99728.03;;;11.89;100.00
12666;BME280;58531;59.050;17.416;2023-07-31T00:28:12;99733.66;;;11.91;100.00
12666;BME280;58531;59.050;17.416;2023-07-31T00:30:39;99722.97;;;11.91;100.00
12666;BME280;58531;59.050;17.416;2023-07-31T00:33:06;99723.88;;;11.88;100.00
12666;BME280;58531;59.050;17.416;2023-07-31T00:35:33;99729.69;;;11.87;100.00
12666;BME280;58531;59.050;17.416;2023-07-31T00:38:00;99731.63;;;11.86;100.00
12666;BME280;58531;59.050;17.416;2023-07-31T00:40:27;99731.63;;;11.86;100.00
12666;BME280;58531;59.050;17.416;2023-07-31T00:42:53;99735.50;;;11.85;100.00
12666;BME280;58531;59.050;17.416;2023-07-31T00:45:23;99736.72;;;11.84;100.00
12666;BME280;58531;59.050;17.416;2023-07-31T00:47:52;99725.00;;;11.82;100.00
12666;BME280;58531;59.050;17.416;2023-07-31T00:50:19;99734.97;;;11.81;100.00
12666;BME280;58531;59.050;17.416;2023-07-31T00:52:46;99734.03;;;11.84;100.00
12666;BME280;58531;59.050;17.416;2023-07-31T00:55:12;99730.16;;;11.85;100.00
12666;BME280;58531;59.050;17.416;2023-07-31T00:57:41;99731.09;;;11.82;100.00
12666;BME280;58531;59.050;17.416;2023-07-31T01:00:09;99728.84;;;11.81;100.00
12666;BME280;58531;59.050;17.416;2023-07-31T01:02:37;99716.97;;;11.82;100.00
12666;BME280;58531;59.050;17.416;2023-07-31T01:05:05;99721.88;;;11.83;100.00
12666;BME280;58531;59.050;17.416;2023-07-31T01:07:50;99729.97;;;11.89;100.00
12666;BME280;58531;59.050;17.416;2023-07-31T01:10:21;99721.75;;;11.92;100.00
12666;BME280;58531;59.050;17.416;2023-07-31T01:12:51;99717.75;;;12.02;100.00
12666;BME280;58531;59.050;17.416;2023-07-31T01:15:18;99712.75;;;12.10;100.00
12666;BME280;58531;59.050;17.416;2023-07-31T01:17:46;99717.50;;;12.20;100.00
12666;BME280;58531;59.050;17.416;2023-07-31T01:20:15;99720.06;;;12.29;100.00
12666;BME280;58531;59.050;17.416;2023-07-31T01:22:58;99712.09;;;12.35;100.00
12666;BME280;58531;59.050;17.416;2023-07-31T01:28:32;99714.88;;;12.40;100.00
12666;BME280;58531;59.050;17.416;2023-07-31T01:31:00;99710.97;;;12.41;100.00
12666;BME280;58531;59.050;17.416;2023-07-31T01:33:29;99711.91;;;12.38;100.00
12666;BME280;58531;59.050;17.416;2023-07-31T01:35:57;99713.78;;;12.32;100.00
12666;BME280;58531;59.050;17.416;2023-07-31T01:38:24;99712.69;;;12.24;100.00
12666;BME280;58531;59.050;17.416;2023-07-31T01:40:51;99712.38;;;12.17;100.00
12666;BME280;58531;59.050;17.416;2023-07-31T01:43:18;99710.09;;;12.10;100.00
12666;BME280;58531;59.050;17.416;2023-07-31T01:45:47;99708.50;;;12.03;100.00
12666;BME280;58531;59.050;17.416;2023-07-31T01:48:13;99705.03;;;11.97;100.00
12666;BME280;58531;59.050;17.416;2023-07-31T01:50:40;99700.06;;;11.90;100.00
12666;BME280;58531;59.050;17.416;2023-07-31T01:53:07;99698.59;;;11.89;100.00
12666;BME280;58531;59.050;17.416;2023-07-31T01:55:34;99693.25;;;11.89;100.00
12666;BME280;58531;59.050;17.416;2023-07-31T01:58:01;99700.06;;;11.90;100.00
12666;BME280;58531;59.050;17.416;2023-07-31T02:00:28;99699.16;;;11.93;100.00
12666;BME280;58531;59.050;17.416;2023-07-31T02:02:56;99704.38;;;12.02;100.00
12666;BME280;58531;59.050;17.416;2023-07-31T02:05:23;99698.63;;;12.09;100.00
12666;BME280;58531;59.050;17.416;2023-07-31T02:07:49;99701.84;;;12.13;100.00
12666;BME280;58531;59.050;17.416;2023-07-31T02:10:16;99696.03;;;12.15;100.00
12666;BME280;58531;59.050;17.416;2023-07-31T02:12:43;99697.31;;;12.19;100.00
12666;BME280;58531;59.050;17.416;2023-07-31T02:15:10;99697.78;;;12.18;100.00
12666;BME280;58531;59.050;17.416;2023-07-31T02:17:37;99693.91;;;12.19;100.00
12666;BME280;58531;59.050;17.416;2023-07-31T02:20:06;99700.91;;;12.16;100.00
12666;BME280;58531;59.050;17.416;2023-07-31T02:22:33;99702.94;;;12.21;100.00
12666;BME280;58531;59.050;17.416;2023-07-31T02:25:00;99696.16;;;12.26;100.00
12666;BME280;58531;59.050;17.416;2023-07-31T02:27:27;99696.25;;;12.31;100.00
12666;BME280;58531;59.050;17.416;2023-07-31T02:29:54;99702.16;;;12.35;100.00
12666;BME280;58531;59.050;17.416;2023-07-31T02:32:21;99698.25;;;12.36;100.00
12666;BME280;58531;59.050;17.416;2023-07-31T02:34:48;99697.31;;;12.39;100.00
12666;BME280;58531;59.050;17.416;2023-07-31T02:37:16;99696.13;;;12.40;100.00
12666;BME280;58531;59.050;17.416;2023-07-31T02:39:43;99691.97;;;12.39;100.00
12666;BME280;58531;59.050;17.416;2023-07-31T02:42:10;99692.25;;;12.41;100.00
12666;BME280;58531;59.050;17.416;2023-07-31T02:44:37;99688.63;;;12.44;100.00
12666;BME280;58531;59.050;17.416;2023-07-31T02:47:03;99683.00;;;12.42;100.00
12666;BME280;58531;59.050;17.416;2023-07-31T02:49:30;99683.94;;;12.39;100.00
12666;BME280;58531;59.050;17.416;2023-07-31T02:51:57;99681.72;;;12.38;100.00
12666;BME280;58531;59.050;17.416;2023-07-31T02:54:25;99688.75;;;12.35;100.00
12666;BME280;58531;59.050;17.416;2023-07-31T02:56:52;99684.59;;;12.34;100.00
12666;BME280;58531;59.050;17.416;2023-07-31T02:59:20;99683.31;;;12.30;100.00
12666;BME280;58531;59.050;17.416;2023-07-31T03:01:47;99680.84;;;12.26;100.00
12666;BME280;58531;59.050;17.416;2023-07-31T03:04:13;99683.75;;;12.23;100.00
12666;BME280;58531;59.050;17.416;2023-07-31T03:06:40;99677.84;;;12.19;100.00
12666;BME280;58531;59.050;17.416;2023-07-31T03:09:07;99676.56;;;12.14;100.00
12666;BME280;58531;59.050;17.416;2023-07-31T03:11:35;99675.06;;;12.13;100.00
12666;BME280;58531;59.050;17.416;2023-07-31T03:14:02;99677.31;;;12.15;100.00
12666;BME280;58531;59.050;17.416;2023-07-31T03:16:29;99662.78;;;12.21;100.00
12666;BME280;58531;59.050;17.416;2023-07-31T03:18:56;99670.41;;;12.28;100.00
12666;BME280;58531;59.050;17.416;2023-07-31T03:21:23;99663.44;;;12.36;100.00
12666;BME280;58531;59.050;17.416;2023-07-31T03:23:50;99659.75;;;12.54;100.00
12666;BME280;58531;59.050;17.416;2023-07-31T03:26:17;99657.25;;;12.70;100.00
12666;BME280;58531;59.050;17.416;2023-07-31T03:28:45;99657.16;;;12.85;100.00
12666;BME280;58531;59.050;17.416;2023-07-31T03:31:12;99660.25;;;12.98;100.00
12666;BME280;58531;59.050;17.416;2023-07-31T03:33:39;99666.22;;;13.12;100.00
12666;BME280;58531;59.050;17.416;2023-07-31T03:36:06;99665.16;;;13.30;100.00
12666;BME280;58531;59.050;17.416;2023-07-31T03:38:33;99663.78;;;13.40;100.00
12666;BME280;58531;59.050;17.416;2023-07-31T03:41:00;99657.91;;;13.36;100.00
12666;BME280;58531;59.050;17.416;2023-07-31T03:43:27;99665.50;;;13.43;100.00
12666;BME280;58531;59.050;17.416;2023-07-31T03:45:56;99653.50;;;13.38;100.00
12666;BME280;58531;59.050;17.416;2023-07-31T03:48:22;99658.63;;;13.36;100.00
12666;BME280;58531;59.050;17.416;2023-07-31T03:50:49;99653.31;;;13.42;100.00
12666;BME280;58531;59.050;17.416;2023-07-31T03:53:16;99655.03;;;13.45;100.00
12666;BME280;58531;59.050;17.416;2023-07-31T03:55:43;99653.16;;;13.51;100.00
12666;BME280;58531;59.050;17.416;2023-07-31T03:58:10;99660.97;;;13.54;100.00
12666;BME280;58531;59.050;17.416;2023-07-31T04:00:36;99658.31;;;13.60;100.00
12666;BME280;58531;59.050;17.416;2023-07-31T04:03:05;99661.03;;;13.65;100.00
12666;BME280;58531;59.050;17.416;2023-07-31T04:05:32;99665.97;;;13.72;100.00
12666;BME280;58531;59.050;17.416;2023-07-31T04:07:59;99657.25;;;13.83;100.00
12666;BME280;58531;59.050;17.416;2023-07-31T04:10:25;99665.38;;;13.94;100.00
12666;BME280;58531;59.050;17.416;2023-07-31T04:12:52;99668.34;;;14.01;100.00
12666;BME280;58531;59.050;17.416;2023-07-31T04:15:19;99663.72;;;14.07;100.00
12666;BME280;58531;59.050;17.416;2023-07-31T04:17:46;99660.38;;;14.18;100.00
12666;BME280;58531;59.050;17.416;2023-07-31T04:20:14;99670.44;;;14.28;100.00
12666;BME280;58531;59.050;17.416;2023-07-31T04:22:41;99674.13;;;14.30;100.00
12666;BME280;58531;59.050;17.416;2023-07-31T04:25:08;99673.97;;;14.50;100.00
12666;BME280;58531;59.050;17.416;2023-07-31T04:27:35;99691.78;;;14.53;100.00
12666;BME280;58531;59.050;17.416;2023-07-31T04:30:02;99699.13;;;14.58;100.00
12666;BME280;58531;59.050;17.416;2023-07-31T04:32:29;99712.81;;;14.55;100.00
12666;BME280;58531;59.050;17.416;2023-07-31T04:34:56;99714.38;;;14.78;100.00
12666;BME280;58531;59.050;17.416;2023-07-31T04:37:24;99731.53;;;15.02;100.00
12666;BME280;58531;59.050;17.416;2023-07-31T04:39:51;99719.63;;;15.36;100.00
12666;BME280;58531;59.050;17.416;2023-07-31T04:42:18;99727.22;;;15.32;100.00
12666;BME280;58531;59.050;17.416;2023-07-31T04:44:45;99727.66;;;15.25;100.00
12666;BME280;58531;59.050;17.416;2023-07-31T04:47:12;99736.69;;;15.22;100.00
12666;BME280;58531;59.050;17.416;2023-07-31T04:49:38;99739.63;;;15.13;100.00
12666;BME280;58531;59.050;17.416;2023-07-31T04:52:06;99741.09;;;15.09;100.00
12666;BME280;58531;59.050;17.416;2023-07-31T04:54:34;99745.72;;;15.08;100.00
12666;BME280;58531;59.050;17.416;2023-07-31T04:57:01;99744.25;;;15.02;100.00
12666;BME280;58531;59.050;17.416;2023-07-31T04:59:27;99744.94;;;14.91;100.00
12666;BME280;58531;59.050;17.416;2023-07-31T05:01:55;99746.38;;;14.81;100.00
12666;BME280;58531;59.050;17.416;2023-07-31T05:04:21;99747.81;;;14.71;100.00
12666;BME280;58531;59.050;17.416;2023-07-31T05:06:48;99743.88;;;14.67;100.00
12666;BME280;58531;59.050;17.416;2023-07-31T05:09:15;99747.53;;;14.64;100.00
12666;BME280;58531;59.050;17.416;2023-07-31T05:11:44;99746.34;;;14.70;100.00
12666;BME280;58531;59.050;17.416;2023-07-31T05:14:11;99744.91;;;14.75;100.00
12666;BME280;58531;59.050;17.416;2023-07-31T05:16:38;99742.00;;;14.89;100.00
12666;BME280;58531;59.050;17.416;2023-07-31T05:19:04;99736.41;;;14.98;100.00
12666;BME280;58531;59.050;17.416;2023-07-31T05:21:31;99744.03;;;15.11;100.00
12666;BME280;58531;59.050;17.416;2023-07-31T05:23:58;99743.53;;;15.07;100.00
12666;BME280;58531;59.050;17.416;2023-07-31T05:26:25;99751.59;;;15.07;100.00
12666;BME280;58531;59.050;17.416;2023-07-31T05:28:53;99749.63;;;15.07;100.00
12666;BME280;58531;59.050;17.416;2023-07-31T05:31:20;99753.53;;;14.95;100.00
12666;BME280;58531;59.050;17.416;2023-07-31T05:33:48;99755.44;;;14.89;100.00
12666;BME280;58531;59.050;17.416;2023-07-31T05:36:15;99756.38;;;14.75;100.00
12666;BME280;58531;59.050;17.416;2023-07-31T05:38:42;99752.16;;;14.63;100.00
12666;BME280;58531;59.050;17.416;2023-07-31T05:41:10;99759.72;;;14.59;100.00
12666;BME280;58531;59.050;17.416;2023-07-31T05:43:37;99759.72;;;14.59;100.00
12666;BME280;58531;59.050;17.416;2023-07-31T05:46:06;99763.63;;;14.58;100.00
12666;BME280;58531;59.050;17.416;2023-07-31T05:48:34;99765.06;;;14.48;100.00
12666;BME280;58531;59.050;17.416;2023-07-31T05:51:01;99766.53;;;14.49;100.00
12666;BME280;58531;59.050;17.416;2023-07-31T05:53:28;99767.25;;;14.50;100.00
12666;BME280;58531;59.050;17.416;2023-07-31T05:55:55;99767.25;;;14.44;100.00
12666;BME280;58531;59.050;17.416;2023-07-31T05:58:22;99761.16;;;14.49;100.00
12666;BME280;58531;59.050;17.416;2023-07-31T06:00:49;99765.53;;;14.47;100.00
12666;BME280;58531;59.050;17.416;2023-07-31T06:03:17;99772.81;;;14.35;100.00
12666;BME280;58531;59.050;17.416;2023-07-31T06:05:44;99765.38;;;14.19;100.00
12666;BME280;58531;59.050;17.416;2023-07-31T06:08:11;99761.38;;;14.10;100.00
12666;BME280;58531;59.050;17.416;2023-07-31T06:10:38;99752.59;;;14.09;100.00
12666;BME280;58531;59.050;17.416;2023-07-31T06:13:05;99745.25;;;14.10;100.00
12666;BME280;58531;59.050;17.416;2023-07-31T06:15:31;99739.09;;;13.98;100.00
12666;BME280;58531;59.050;17.416;2023-07-31T06:17:58;99742.78;;;14.01;100.00
12666;BME280;58531;59.050;17.416;2023-07-31T06:20:28;99739.34;;;14.00;100.00
12666;BME280;58531;59.050;17.416;2023-07-31T06:22:55;99738.88;;;14.02;100.00
12666;BME280;58531;59.050;17.416;2023-07-31T06:25:22;99730.78;;;13.96;100.00
12666;BME280;58531;59.050;17.416;2023-07-31T06:27:49;99739.84;;;13.99;100.00
12666;BME280;58531;59.050;17.416;2023-07-31T06:30:16;99731.28;;;14.00;100.00
12666;BME280;58531;59.050;17.416;2023-07-31T06:32:43;99742.78;;;14.01;100.00
12666;BME280;58531;59.050;17.416;2023-07-31T06:35:10;99748.91;;;14.07;100.00
12666;BME280;58531;59.050;17.416;2023-07-31T06:37:38;99737.69;;;14.08;100.00
12666;BME280;58531;59.050;17.416;2023-07-31T06:40:09;99735.06;;;14.14;100.00
12666;BME280;58531;59.050;17.416;2023-07-31T06:42:36;99728.47;;;14.15;100.00
12666;BME280;58531;59.050;17.416;2023-07-31T06:45:04;99729.16;;;14.10;100.00
12666;BME280;58531;59.050;17.416;2023-07-31T06:47:31;99727.94;;;14.11;100.00
12666;BME280;58531;59.050;17.416;2023-07-31T06:49:58;99723.31;;;14.11;100.00
12666;BME280;58531;59.050;17.416;2023-07-31T06:52:25;99726.19;;;14.08;100.00
12666;BME280;58531;59.050;17.416;2023-07-31T06:55:03;99721.53;;;14.03;100.00
12666;BME280;58531;59.050;17.416;2023-07-31T06:57:30;99724.00;;;14.01;100.00
12666;BME280;58531;59.050;17.416;2023-07-31T06:59:57;99720.78;;;13.97;100.00
12666;BME280;58531;59.050;17.416;2023-07-31T07:02:24;99724.16;;;13.92;100.00
12666;BME280;58531;59.050;17.416;2023-07-31T07:04:51;99730.50;;;13.89;100.00
12666;BME280;58531;59.050;17.416;2023-07-31T07:07:18;99729.03;;;13.88;100.00
12666;BME280;58531;59.050;17.416;2023-07-31T07:09:45;99732.41;;;13.88;100.00
12666;BME280;58531;59.050;17.416;2023-07-31T07:12:13;99726.59;;;13.90;100.00
12666;BME280;58531;59.050;17.416;2023-07-31T07:14:40;99723.66;;;13.88;100.00
12666;BME280;58531;59.050;17.416;2023-07-31T07:17:07;99716.31;;;13.88;100.00
12666;BME280;58531;59.050;17.416;2023-07-31T07:19:33;99718.28;;;13.88;100.00
12666;BME280;58531;59.050;17.416;2023-07-31T07:22:00;99720.44;;;13.84;100.00
12666;BME280;58531;59.050;17.416;2023-07-31T07:24:27;99713.31;;;13.75;100.00
12666;BME280;58531;59.050;17.416;2023-07-31T07:26:54;99720.84;;;13.71;100.00
12666;BME280;58531;59.050;17.416;2023-07-31T07:29:22;99714.00;;;13.70;100.00
12666;BME280;58531;59.050;17.416;2023-07-31T07:31:49;99709.16;;;13.74;100.00
12666;BME280;58531;59.050;17.416;2023-07-31T07:34:16;99716.03;;;13.81;100.00
12666;BME280;58531;59.050;17.416;2023-07-31T07:36:43;99717.50;;;13.82;100.00
12666;BME280;58531;59.050;17.416;2023-07-31T07:39:10;99706.50;;;13.80;100.00
12666;BME280;58531;59.050;17.416;2023-07-31T07:41:37;99707.03;;;13.84;100.00
12666;BME280;58531;59.050;17.416;2023-07-31T07:44:04;99703.13;;;13.85;100.00
12666;BME280;58531;59.050;17.416;2023-07-31T07:46:32;99711.22;;;13.90;100.00
12666;BME280;58531;59.050;17.416;2023-07-31T07:48:59;99702.19;;;13.88;100.00
12666;BME280;58531;59.050;17.416;2023-07-31T07:51:26;99698.72;;;13.82;100.00
12666;BME280;58531;59.050;17.416;2023-07-31T07:53:55;99703.81;;;13.80;100.00
12666;BME280;58531;59.050;17.416;2023-07-31T07:56:23;99701.16;;;13.85;100.00
12666;BME280;58531;59.050;17.416;2023-07-31T07:58:50;99705.16;;;13.95;100.00
12666;BME280;58531;59.050;17.416;2023-07-31T08:01:17;99699.50;;;13.93;100.00
12666;BME280;58531;59.050;17.416;2023-07-31T08:03:46;99703.22;;;13.96;100.00
12666;BME280;58531;59.050;17.416;2023-07-31T08:06:13;99706.41;;;14.00;100.00
12666;BME280;58531;59.050;17.416;2023-07-31T08:08:40;99701.28;;;14.02;100.00
12666;BME280;58531;59.050;17.416;2023-07-31T08:11:07;99699.59;;;14.04;100.00
12666;BME280;58531;59.050;17.416;2023-07-31T08:13:34;99702.56;;;14.12;100.00
12666;BME280;58531;59.050;17.416;2023-07-31T08:16:02;99706.53;;;14.21;100.00
12666;BME280;58531;59.050;17.416;2023-07-31T08:18:30;99704.13;;;14.29;100.00
12666;BME280;58531;59.050;17.416;2023-07-31T08:20:58;99703.91;;;14.32;100.00
12666;BME280;58531;59.050;17.416;2023-07-31T08:23:25;99704.94;;;14.40;100.00
12666;BME280;58531;59.050;17.416;2023-07-31T08:25:52;99693.94;;;14.44;100.00
12666;BME280;58531;59.050;17.416;2023-07-31T08:28:19;99701.56;;;14.56;100.00
12666;BME280;58531;59.050;17.416;2023-07-31T08:30:45;99704.56;;;14.69;100.00
12666;BME280;58531;59.050;17.416;2023-07-31T08:33:12;99702.38;;;14.79;100.00
12666;BME280;58531;59.050;17.416;2023-07-31T08:35:39;99707.78;;;14.90;100.00
12666;BME280;58531;59.050;17.416;2023-07-31T08:38:07;99713.72;;;15.16;100.00
12666;BME280;58531;59.050;17.416;2023-07-31T08:40:36;99710.81;;;15.30;100.00
12666;BME280;58531;59.050;17.416;2023-07-31T08:43:03;99715.72;;;15.48;100.00
12666;BME280;58531;59.050;17.416;2023-07-31T08:45:30;99714.72;;;15.62;100.00
12666;BME280;58531;59.050;17.416;2023-07-31T08:47:59;99714.47;;;15.93;100.00
12666;BME280;58531;59.050;17.416;2023-07-31T08:50:26;99714.66;;;16.22;100.00
12666;BME280;58531;59.050;17.416;2023-07-31T08:52:53;99717.56;;;16.35;100.00
12666;BME280;58531;59.050;17.416;2023-07-31T08:55:21;99710.72;;;16.40;100.00
12666;BME280;58531;59.050;17.416;2023-07-31T08:57:51;99713.72;;;16.76;100.00
12666;BME280;58531;59.050;17.416;2023-07-31T09:00:19;99710.22;;;16.92;100.00
12666;BME280;58531;59.050;17.416;2023-07-31T09:02:52;99706.53;;;16.95;100.00
12666;BME280;58531;59.050;17.416;2023-07-31T09:05:21;99707.28;;;16.90;100.00
12666;BME280;58531;59.050;17.416;2023-07-31T09:07:49;99710.94;;;16.98;100.00
12666;BME280;58531;59.050;17.416;2023-07-31T09:10:16;99705.44;;;17.15;100.00
12666;BME280;58531;59.050;17.416;2023-07-31T09:12:45;99709.75;;;17.29;100.00
12666;BME280;58531;59.050;17.416;2023-07-31T09:15:13;99705.59;;;17.22;100.00
12666;BME280;58531;59.050;17.416;2023-07-31T09:17:40;99707.75;;;17.35;100.00
12666;BME280;58531;59.050;17.416;2023-07-31T09:20:14;99711.41;;;17.96;100.00
12666;BME280;58531;59.050;17.416;2023-07-31T09:22:41;99714.34;;;17.98;100.00
12666;BME280;58531;59.050;17.416;2023-07-31T09:25:14;99707.38;;;18.08;100.00
12666;BME280;58531;59.050;17.416;2023-07-31T09:27:51;99712.19;;;18.15;100.00
12666;BME280;58531;59.050;17.416;2023-07-31T09:30:18;99704.88;;;18.10;100.00
12666;BME280;58531;59.050;17.416;2023-07-31T09:32:45;99709.13;;;18.24;100.00
12666;BME280;58531;59.050;17.416;2023-07-31T09:35:14;99711.97;;;18.13;100.00
12666;BME280;58531;59.050;17.416;2023-07-31T09:37:48;99705.88;;;18.55;100.00
12666;BME280;58531;59.050;17.416;2023-07-31T09:40:25;99700.91;;;18.59;97.21
12666;BME280;58531;59.050;17.416;2023-07-31T09:42:55;99702.38;;;18.78;97.45
12666;BME280;58531;59.050;17.416;2023-07-31T09:45:23;99703.75;;;18.85;98.09
12666;BME280;58531;59.050;17.416;2023-07-31T09:47:50;99707.69;;;18.84;97.70
12666;BME280;58531;59.050;17.416;2023-07-31T09:50:17;99705.78;;;19.15;93.87
12666;BME280;58531;59.050;17.416;2023-07-31T09:52:44;99703.06;;;18.97;96.26
12666;BME280;58531;59.050;17.416;2023-07-31T09:55:12;99704.84;;;18.95;94.25
12666;BME280;58531;59.050;17.416;2023-07-31T09:57:40;99698.25;;;19.08;93.38
12666;BME280;58531;59.050;17.416;2023-07-31T10:00:10;99701.72;;;19.40;89.77
12666;BME280;58531;59.050;17.416;2023-07-31T10:02:38;99699.13;;;19.16;86.10
12666;BME280;58531;59.050;17.416;2023-07-31T10:05:06;99694.41;;;19.35;87.18
12666;BME280;58531;59.050;17.416;2023-07-31T10:07:36;99690.72;;;19.51;85.08
12666;BME280;58531;59.050;17.416;2023-07-31T10:10:04;99683.69;;;19.11;92.92
12666;BME280;58531;59.050;17.416;2023-07-31T10:12:32;99685.81;;;19.00;94.32
12666;BME280;58531;59.050;17.416;2023-07-31T10:15:00;99680.84;;;19.22;93.50
12666;BME280;58531;59.050;17.416;2023-07-31T10:17:29;99672.63;;;19.59;88.75
12666;BME280;58531;59.050;17.416;2023-07-31T10:19:57;99685.56;;;19.79;88.52
12666;BME280;58531;59.050;17.416;2023-07-31T10:22:25;99682.44;;;19.31;96.05
12666;BME280;58531;59.050;17.416;2023-07-31T10:24:52;99681.09;;;19.37;91.46
12666;BME280;58531;59.050;17.416;2023-07-31T10:27:21;99672.75;;;19.35;92.05
12666;BME280;58531;59.050;17.416;2023-07-31T10:29:48;99660.94;;;19.64;92.19
12666;BME280;58531;59.050;17.416;2023-07-31T10:32:17;99677.19;;;19.51;90.50
12666;BME280;58531;59.050;17.416;2023-07-31T10:34:45;99667.44;;;19.43;92.86
12666;BME280;58531;59.050;17.416;2023-07-31T10:37:24;99668.63;;;19.47;94.58
12666;BME280;58531;59.050;17.416;2023-07-31T10:39:59;99659.03;;;19.46;93.58
12666;BME280;58531;59.050;17.416;2023-07-31T10:42:30;99664.63;;;19.35;93.17
12666;BME280;58531;59.050;17.416;2023-07-31T10:44:59;99673.53;;;18.99;94.18
12666;BME280;58531;59.050;17.416;2023-07-31T10:47:26;99668.13;;;18.99;95.98
12666;BME280;58531;59.050;17.416;2023-07-31T10:50:11;99674.81;;;19.29;93.57
12666;BME280;58531;59.050;17.416;2023-07-31T10:52:38;99671.72;;;19.38;92.14
12666;BME280;58531;59.050;17.416;2023-07-31T10:55:25;99676.53;;;19.45;91.06
12666;BME280;58531;59.050;17.416;2023-07-31T10:57:53;99661.34;;;19.55;92.99
12666;BME280;58531;59.050;17.416;2023-07-31T11:00:21;99680.78;;;19.41;95.11
12666;BME280;58531;59.050;17.416;2023-07-31T11:03:03;99684.41;;;19.30;95.81
12666;BME280;58531;59.050;17.416;2023-07-31T11:05:48;99682.94;;;19.29;93.71
12666;BME280;58531;59.050;17.416;2023-07-31T11:08:18;99688.56;;;19.31;93.67
12666;BME280;58531;59.050;17.416;2023-07-31T11:10:46;99690.63;;;19.57;91.81
12666;BME280;58531;59.050;17.416;2023-07-31T11:13:14;99680.84;;;19.22;88.71
12666;BME280;58531;59.050;17.416;2023-07-31T11:15:41;99685.81;;;19.18;93.15
12666;BME280;58531;59.050;17.416;2023-07-31T11:18:07;99692.34;;;19.41;90.54
12666;BME280;58531;59.050;17.416;2023-07-31T11:20:37;99691.50;;;19.33;90.01
12666;BME280;58531;59.050;17.416;2023-07-31T11:23:07;99679.78;;;18.76;90.92
12666;BME280;58531;59.050;17.416;2023-07-31T11:25:35;99688.75;;;18.84;93.12
12666;BME280;58531;59.050;17.416;2023-07-31T11:28:06;99693.88;;;18.69;91.83
12666;BME280;58531;59.050;17.416;2023-07-31T11:30:33;99692.06;;;18.77;92.07
12666;BME280;58531;59.050;17.416;2023-07-31T11:33:01;99694.16;;;18.84;96.15
12666;BME280;58531;59.050;17.416;2023-07-31T11:35:30;99698.25;;;19.08;95.54
12666;BME280;58531;59.050;17.416;2023-07-31T11:37:57;99691.53;;;19.15;92.15
12666;BME280;58531;59.050;17.416;2023-07-31T11:40:25;99696.50;;;18.93;89.13
12666;BME280;58531;59.050;17.416;2023-07-31T11:42:56;99692.78;;;18.59;91.74
12666;BME280;58531;59.050;17.416;2023-07-31T11:45:25;99692.84;;;18.53;92.00
12666;BME280;58531;59.050;17.416;2023-07-31T11:47:54;99689.22;;;18.69;93.02
12666;BME280;58531;59.050;17.416;2023-07-31T11:50:22;99698.25;;;18.72;91.83
12666;BME280;58531;59.050;17.416;2023-07-31T11:52:52;99699.28;;;18.50;94.38
12666;BME280;58531;59.050;17.416;2023-07-31T11:55:20;99691.69;;;18.49;92.00
12666;BME280;58531;59.050;17.416;2023-07-31T11:57:48;99692.34;;;18.55;92.16
12666;BME280;58531;59.050;17.416;2023-07-31T12:00:15;99689.03;;;18.62;93.74
12666;BME280;58531;59.050;17.416;2023-07-31T12:02:43;99689.34;;;18.77;92.31
12666;BME280;58531;59.050;17.416;2023-07-31T12:05:11;99688.41;;;18.56;88.97
12666;BME280;58531;59.050;17.416;2023-07-31T12:07:50;99688.41;;;18.56;88.94
12666;BME280;58531;59.050;17.416;2023-07-31T12:10:28;99687.75;;;18.87;86.37
12666;BME280;58531;59.050;17.416;2023-07-31T12:12:58;99690.50;;;19.18;87.52
12666;BME280;58531;59.050;17.416;2023-07-31T12:15:30;99694.00;;;19.31;87.61
12666;BME280;58531;59.050;17.416;2023-07-31T12:17:57;99692.03;;;18.95;88.98
12666;BME280;58531;59.050;17.416;2023-07-31T12:20:24;99699.28;;;19.24;89.60
12666;BME280;58531;59.050;17.416;2023-07-31T12:22:51;99695.00;;;19.28;88.61
12666;BME280;58531;59.050;17.416;2023-07-31T12:25:18;99696.47;;;19.29;91.31
12666;BME280;58531;59.050;17.416;2023-07-31T12:27:45;99698.31;;;19.21;90.84
12666;BME280;58531;59.050;17.416;2023-07-31T12:30:29;99697.97;;;18.94;84.99
12666;BME280;58531;59.050;17.416;2023-07-31T12:32:56;99695.34;;;18.70;94.41
12666;BME280;58531;59.050;17.416;2023-07-31T12:35:22;99690.44;;;18.87;94.02
12666;BME280;58531;59.050;17.416;2023-07-31T12:37:49;99695.72;;;18.98;88.68
12666;BME280;58531;59.050;17.416;2023-07-31T12:40:16;99685.69;;;18.93;89.24
12666;BME280;58531;59.050;17.416;2023-07-31T12:42:43;99694.75;;;19.13;88.86
12666;BME280;58531;59.050;17.416;2023-07-31T12:45:10;99687.16;;;18.94;88.94
12666;BME280;58531;59.050;17.416;2023-07-31T12:47:38;99681.88;;;19.01;86.84
12666;BME280;58531;59.050;17.416;2023-07-31T12:50:06;99689.75;;;18.99;85.48